sensor_id;sensor_type;location;lat;lon;timestamp;pressure;altitude;pressure_sealevel;temperature;humidity
56737;BME280;42618;51.226;4.910;2022-09-13T00:01:02;49563.53;;;-146.94;78.37
56737;BME280;42618;51.226;4.910;2022-09-13T00:03:29;49591.44;;;-146.94;78.70
56737;BME280;42618;51.226;4.910;2022-09-13T00:05:55;49555.56;;;-146.94;78.27
56737;BME280;42618;51.226;4.910;2022-09-13T00:08:23;49581.47;;;-146.94;77.99
56737;BME280;42618;51.226;4.910;2022-09-13T00:10:49;49567.53;;;-146.94;78.07
56737;BME280;42618;51.226;4.910;2022-09-13T00:13:16;49553.56;;;-146.94;77.33
56737;BME280;42618;51.226;4.910;2022-09-13T00:15:48;49565.53;;;-146.94;77.76
56737;BME280;42618;51.226;4.910;2022-09-13T00:18:17;49563.53;;;-146.94;77.10
56737;BME280;42618;51.226;4.910;2022-09-13T00:20:44;49565.53;;;-146.94;78.28
56737;BME280;42618;51.226;4.910;2022-09-13T00:23:12;49593.44;;;-146.94;78.73
56737;BME280;42618;51.226;4.910;2022-09-13T00:25:39;49571.50;;;-146.94;77.94
56737;BME280;42618;51.226;4.910;2022-09-13T00:28:06;49577.50;;;-146.94;77.35
56737;BME280;42618;51.226;4.910;2022-09-13T00:30:33;49559.56;;;-146.94;75.20
56737;BME280;42618;51.226;4.910;2022-09-13T00:32:59;49581.47;;;-146.94;74.19
56737;BME280;42618;51.226;4.910;2022-09-13T00:35:31;49555.56;;;-146.94;75.24
56737;BME280;42618;51.226;4.910;2022-09-13T00:37:59;49537.63;;;-146.94;73.62
56737;BME280;42618;51.226;4.910;2022-09-13T00:40:26;49563.53;;;-146.94;72.83
56737;BME280;42618;51.226;4.910;2022-09-13T00:42:56;49535.63;;;-146.94;70.53
56737;BME280;42618;51.226;4.910;2022-09-13T00:45:22;49547.59;;;-146.94;70.21
56737;BME280;42618;51.226;4.910;2022-09-13T00:47:56;49559.56;;;-146.94;70.96
56737;BME280;42618;51.226;4.910;2022-09-13T00:53:01;49563.53;;;-146.94;70.58
56737;BME280;42618;51.226;4.910;2022-09-13T00:55:38;49571.50;;;-146.94;69.26
56737;BME280;42618;51.226;4.910;2022-09-13T00:58:15;49567.53;;;-146.94;68.30
56737;BME280;42618;51.226;4.910;2022-09-13T01:00:44;49535.63;;;-146.94;68.20
56737;BME280;42618;51.226;4.910;2022-09-13T01:03:12;49551.56;;;-146.94;67.79
56737;BME280;42618;51.226;4.910;2022-09-13T01:05:47;49559.56;;;-146.94;67.39
56737;BME280;42618;51.226;4.910;2022-09-13T01:08:16;49507.72;;;-146.94;67.66
56737;BME280;42618;51.226;4.910;2022-09-13T01:10:52;49537.63;;;-146.94;68.02
56737;BME280;42618;51.226;4.910;2022-09-13T01:13:30;49555.56;;;-146.94;69.03
56737;BME280;42618;51.226;4.910;2022-09-13T01:15:58;49561.53;;;-146.94;69.51
56737;BME280;42618;51.226;4.910;2022-09-13T01:18:25;49571.50;;;-146.94;70.37
56737;BME280;42618;51.226;4.910;2022-09-13T01:23:38;49551.56;;;-146.94;72.75
56737;BME280;42618;51.226;4.910;2022-09-13T01:29:24;49525.66;;;-146.94;75.30
56737;BME280;42618;51.226;4.910;2022-09-13T01:37:45;49551.56;;;-146.94;77.04
56737;BME280;42618;51.226;4.910;2022-09-13T01:40:27;49537.63;;;-146.94;76.98
56737;BME280;42618;51.226;4.910;2022-09-13T01:46:08;49601.41;;;-146.94;77.25
56737;BME280;42618;51.226;4.910;2022-09-13T01:51:36;49567.53;;;-146.94;77.67
56737;BME280;42618;51.226;4.910;2022-09-13T01:54:35;49529.66;;;-146.94;77.46
56737;BME280;42618;51.226;4.910;2022-09-13T01:57:13;49571.50;;;-146.94;76.71
56737;BME280;42618;51.226;4.910;2022-09-13T02:02:46;49567.53;;;-146.94;77.60
56737;BME280;42618;51.226;4.910;2022-09-13T02:08:31;49575.50;;;-146.94;76.96
56737;BME280;42618;51.226;4.910;2022-09-13T02:11:05;49555.56;;;-146.94;76.11
56737;BME280;42618;51.226;4.910;2022-09-13T02:13:41;49565.53;;;-146.94;75.71
56737;BME280;42618;51.226;4.910;2022-09-13T02:16:16;49607.41;;;-146.94;76.42
56737;BME280;42618;51.226;4.910;2022-09-13T02:18:48;49539.63;;;-146.94;76.87
56737;BME280;42618;51.226;4.910;2022-09-13T02:21:29;49571.50;;;-146.94;77.17
56737;BME280;42618;51.226;4.910;2022-09-13T02:24:01;49575.50;;;-146.94;77.89
56737;BME280;42618;51.226;4.910;2022-09-13T02:26:29;49547.59;;;-146.94;78.18
56737;BME280;42618;51.226;4.910;2022-09-13T02:28:59;49535.63;;;-146.94;77.22
56737;BME280;42618;51.226;4.910;2022-09-13T02:31:40;49563.53;;;-146.94;77.63
56737;BME280;42618;51.226;4.910;2022-09-13T02:34:13;49595.44;;;-146.94;78.54
56737;BME280;42618;51.226;4.910;2022-09-13T02:36:44;49591.44;;;-146.94;78.23
56737;BME280;42618;51.226;4.910;2022-09-13T02:39:14;49599.41;;;-146.94;79.76
56737;BME280;42618;51.226;4.910;2022-09-13T02:41:47;49559.56;;;-146.94;79.66
56737;BME280;42618;51.226;4.910;2022-09-13T02:44:25;49553.56;;;-146.94;79.91
56737;BME280;42618;51.226;4.910;2022-09-13T02:49:57;49557.56;;;-146.94;81.23
56737;BME280;42618;51.226;4.910;2022-09-13T02:52:44;49571.50;;;-146.94;81.23
56737;BME280;42618;51.226;4.910;2022-09-13T02:58:10;49593.44;;;-146.94;81.50
56737;BME280;42618;51.226;4.910;2022-09-13T03:00:39;49579.47;;;-146.94;81.91
56737;BME280;42618;51.226;4.910;2022-09-13T03:03:09;49575.50;;;-146.94;82.08
56737;BME280;42618;51.226;4.910;2022-09-13T03:05:37;49571.50;;;-146.94;81.75
56737;BME280;42618;51.226;4.910;2022-09-13T03:08:04;49581.47;;;-146.94;81.73
56737;BME280;42618;51.226;4.910;2022-09-13T03:10:45;49559.56;;;-146.94;82.19
56737;BME280;42618;51.226;4.910;2022-09-13T03:16:08;49579.47;;;-146.94;82.80
56737;BME280;42618;51.226;4.910;2022-09-13T03:24:12;49561.53;;;-146.94;83.85
56737;BME280;42618;51.226;4.910;2022-09-13T03:30:03;49589.44;;;-146.94;83.32
56737;BME280;42618;51.226;4.910;2022-09-13T03:35:39;49587.47;;;-146.94;84.05
56737;BME280;42618;51.226;4.910;2022-09-13T03:38:10;49579.47;;;-146.94;83.98
56737;BME280;42618;51.226;4.910;2022-09-13T03:40:47;49597.44;;;-146.94;83.83
56737;BME280;42618;51.226;4.910;2022-09-13T03:43:29;49549.59;;;-146.94;83.49
56737;BME280;42618;51.226;4.910;2022-09-13T03:46:37;49579.47;;;-146.94;82.75
56737;BME280;42618;51.226;4.910;2022-09-13T03:49:09;49603.41;;;-146.94;83.12
56737;BME280;42618;51.226;4.910;2022-09-13T03:51:38;49597.44;;;-146.94;83.00
56737;BME280;42618;51.226;4.910;2022-09-13T03:54:09;49559.56;;;-146.94;83.55
56737;BME280;42618;51.226;4.910;2022-09-13T03:56:37;49575.50;;;-146.94;83.52
56737;BME280;42618;51.226;4.910;2022-09-13T03:59:04;49551.56;;;-146.94;82.90
56737;BME280;42618;51.226;4.910;2022-09-13T04:01:30;49561.53;;;-146.94;82.60
56737;BME280;42618;51.226;4.910;2022-09-13T04:03:57;49559.56;;;-146.94;82.39
56737;BME280;42618;51.226;4.910;2022-09-13T04:06:24;49555.56;;;-146.94;82.26
56737;BME280;42618;51.226;4.910;2022-09-13T04:08:51;49609.38;;;-146.94;82.12
56737;BME280;42618;51.226;4.910;2022-09-13T04:11:17;49583.47;;;-146.94;81.46
56737;BME280;42618;51.226;4.910;2022-09-13T04:13:46;49565.53;;;-146.94;79.80
56737;BME280;42618;51.226;4.910;2022-09-13T04:16:13;49591.44;;;-146.94;80.43
56737;BME280;42618;51.226;4.910;2022-09-13T04:18:40;49579.47;;;-146.94;81.21
56737;BME280;42618;51.226;4.910;2022-09-13T04:21:07;49583.47;;;-146.94;81.25
56737;BME280;42618;51.226;4.910;2022-09-13T04:23:34;49559.56;;;-146.94;81.93
56737;BME280;42618;51.226;4.910;2022-09-13T04:26:04;49583.47;;;-146.94;82.24
56737;BME280;42618;51.226;4.910;2022-09-13T04:28:31;49565.53;;;-146.94;81.75
56737;BME280;42618;51.226;4.910;2022-09-13T04:30:58;49589.44;;;-146.94;82.54
56737;BME280;42618;51.226;4.910;2022-09-13T04:33:24;49555.56;;;-146.94;82.20
56737;BME280;42618;51.226;4.910;2022-09-13T04:35:58;49579.47;;;-146.94;81.92
56737;BME280;42618;51.226;4.910;2022-09-13T04:38:25;49597.44;;;-146.94;82.50
56737;BME280;42618;51.226;4.910;2022-09-13T04:40:53;49577.50;;;-146.94;82.93
56737;BME280;42618;51.226;4.910;2022-09-13T04:43:21;49575.50;;;-146.94;83.06
56737;BME280;42618;51.226;4.910;2022-09-13T04:45:48;49567.53;;;-146.94;82.89
56737;BME280;42618;51.226;4.910;2022-09-13T04:48:15;49587.47;;;-146.94;81.36
56737;BME280;42618;51.226;4.910;2022-09-13T04:50:42;49591.44;;;-146.94;80.44
56737;BME280;42618;51.226;4.910;2022-09-13T04:53:09;49605.41;;;-146.94;81.17
56737;BME280;42618;51.226;4.910;2022-09-13T04:55:36;49603.41;;;-146.94;81.82
56737;BME280;42618;51.226;4.910;2022-09-13T04:58:02;49551.56;;;-146.94;82.55
56737;BME280;42618;51.226;4.910;2022-09-13T05:00:29;49581.47;;;-146.94;82.67
56737;BME280;42618;51.226;4.910;2022-09-13T05:02:57;49581.47;;;-146.94;83.14
56737;BME280;42618;51.226;4.910;2022-09-13T05:05:24;49607.41;;;-146.94;82.65
56737;BME280;42618;51.226;4.910;2022-09-13T05:07:54;49591.44;;;-146.94;82.69
56737;BME280;42618;51.226;4.910;2022-09-13T05:10:21;49591.44;;;-146.94;84.07
56737;BME280;42618;51.226;4.910;2022-09-13T05:12:48;49583.47;;;-146.94;84.40
56737;BME280;42618;51.226;4.910;2022-09-13T05:15:14;49599.41;;;-146.94;85.02
56737;BME280;42618;51.226;4.910;2022-09-13T05:17:41;49587.47;;;-146.94;85.38
56737;BME280;42618;51.226;4.910;2022-09-13T05:20:08;49595.44;;;-146.94;85.94
56737;BME280;42618;51.226;4.910;2022-09-13T05:22:35;49571.50;;;-146.94;85.76
56737;BME280;42618;51.226;4.910;2022-09-13T05:25:02;49555.56;;;-146.94;85.60
56737;BME280;42618;51.226;4.910;2022-09-13T05:27:29;49615.38;;;-146.94;85.68
56737;BME280;42618;51.226;4.910;2022-09-13T05:29:55;49559.56;;;-146.94;85.52
56737;BME280;42618;51.226;4.910;2022-09-13T05:32:22;49599.41;;;-146.94;85.56
56737;BME280;42618;51.226;4.910;2022-09-13T05:34:49;49579.47;;;-146.94;85.36
56737;BME280;42618;51.226;4.910;2022-09-13T05:37:15;49589.44;;;-146.94;85.22
56737;BME280;42618;51.226;4.910;2022-09-13T05:39:42;49609.38;;;-146.94;84.82
56737;BME280;42618;51.226;4.910;2022-09-13T05:42:28;49563.53;;;-146.94;84.48
56737;BME280;42618;51.226;4.910;2022-09-13T05:44:55;49609.38;;;-146.94;84.33
56737;BME280;42618;51.226;4.910;2022-09-13T05:47:22;49603.41;;;-146.94;84.45
56737;BME280;42618;51.226;4.910;2022-09-13T05:49:49;49609.38;;;-146.94;84.62
56737;BME280;42618;51.226;4.910;2022-09-13T05:52:36;49591.44;;;-146.94;84.86
56737;BME280;42618;51.226;4.910;2022-09-13T05:55:03;49569.50;;;-146.94;85.11
56737;BME280;42618;51.226;4.910;2022-09-13T05:57:29;49595.44;;;-146.94;85.81
56737;BME280;42618;51.226;4.910;2022-09-13T05:59:56;49601.41;;;-146.94;85.71
56737;BME280;42618;51.226;4.910;2022-09-13T06:02:23;49585.47;;;-146.94;85.58
56737;BME280;42618;51.226;4.910;2022-09-13T06:04:49;49621.34;;;-146.94;85.70
56737;BME280;42618;51.226;4.910;2022-09-13T06:07:17;49599.41;;;-146.94;85.36
56737;BME280;42618;51.226;4.910;2022-09-13T06:09:43;49579.47;;;-146.94;85.13
56737;BME280;42618;51.226;4.910;2022-09-13T06:12:10;49557.56;;;-146.94;84.64
56737;BME280;42618;51.226;4.910;2022-09-13T06:14:37;49557.56;;;-146.94;84.55
56737;BME280;42618;51.226;4.910;2022-09-13T06:17:04;49571.50;;;-146.94;84.30
56737;BME280;42618;51.226;4.910;2022-09-13T06:19:30;49575.50;;;-146.94;84.30
56737;BME280;42618;51.226;4.910;2022-09-13T06:21:57;49577.50;;;-146.94;84.32
56737;BME280;42618;51.226;4.910;2022-09-13T06:24:23;49597.44;;;-146.94;83.95
56737;BME280;42618;51.226;4.910;2022-09-13T06:26:50;49585.47;;;-146.94;83.75
56737;BME280;42618;51.226;4.910;2022-09-13T06:29:17;49591.44;;;-146.94;83.40
56737;BME280;42618;51.226;4.910;2022-09-13T06:31:43;49611.38;;;-146.94;83.48
56737;BME280;42618;51.226;4.910;2022-09-13T06:34:11;49539.63;;;-146.94;83.63
56737;BME280;42618;51.226;4.910;2022-09-13T06:36:42;49567.53;;;-146.94;83.12
56737;BME280;42618;51.226;4.910;2022-09-13T06:39:09;49595.44;;;-146.94;82.79
56737;BME280;42618;51.226;4.910;2022-09-13T06:41:36;49555.56;;;-146.94;82.92
56737;BME280;42618;51.226;4.910;2022-09-13T06:44:03;49583.47;;;-146.94;82.99
56737;BME280;42618;51.226;4.910;2022-09-13T06:46:32;49611.38;;;-146.94;83.14
56737;BME280;42618;51.226;4.910;2022-09-13T06:49:01;49579.47;;;-146.94;82.84
56737;BME280;42618;51.226;4.910;2022-09-13T06:51:29;49567.53;;;-146.94;83.04
56737;BME280;42618;51.226;4.910;2022-09-13T06:53:56;49585.47;;;-146.94;82.35
56737;BME280;42618;51.226;4.910;2022-09-13T06:56:25;49551.56;;;-146.94;82.26
56737;BME280;42618;51.226;4.910;2022-09-13T06:58:57;49577.50;;;-146.94;82.25
56737;BME280;42618;51.226;4.910;2022-09-13T07:01:27;49579.47;;;-146.94;82.14
56737;BME280;42618;51.226;4.910;2022-09-13T07:04:13;49585.47;;;-146.94;81.66
56737;BME280;42618;51.226;4.910;2022-09-13T07:06:42;49551.56;;;-146.94;81.94
56737;BME280;42618;51.226;4.910;2022-09-13T07:09:15;49575.50;;;-146.94;81.83
56737;BME280;42618;51.226;4.910;2022-09-13T07:11:44;49561.53;;;-146.94;81.48
56737;BME280;42618;51.226;4.910;2022-09-13T07:14:24;49553.56;;;-146.94;81.50
56737;BME280;42618;51.226;4.910;2022-09-13T07:16:51;49607.41;;;-146.94;81.61
56737;BME280;42618;51.226;4.910;2022-09-13T07:19:20;49559.56;;;-146.94;81.34
56737;BME280;42618;51.226;4.910;2022-09-13T07:21:52;49535.63;;;-146.94;81.28
56737;BME280;42618;51.226;4.910;2022-09-13T07:24:20;49585.47;;;-146.94;81.46
56737;BME280;42618;51.226;4.910;2022-09-13T07:26:48;49559.56;;;-146.94;80.78
56737;BME280;42618;51.226;4.910;2022-09-13T07:29:17;49591.44;;;-146.94;80.96
56737;BME280;42618;51.226;4.910;2022-09-13T07:31:46;49583.47;;;-146.94;80.24
56737;BME280;42618;51.226;4.910;2022-09-13T07:34:17;49543.59;;;-146.94;79.90
56737;BME280;42618;51.226;4.910;2022-09-13T07:36:45;49567.53;;;-146.94;79.25
56737;BME280;42618;51.226;4.910;2022-09-13T07:39:13;49555.56;;;-146.94;79.26
56737;BME280;42618;51.226;4.910;2022-09-13T07:41:47;49541.59;;;-146.94;78.11
56737;BME280;42618;51.226;4.910;2022-09-13T07:44:13;49561.53;;;-146.94;77.78
56737;BME280;42618;51.226;4.910;2022-09-13T07:46:40;49585.47;;;-146.94;76.78
56737;BME280;42618;51.226;4.910;2022-09-13T07:49:13;49587.47;;;-146.94;76.57
56737;BME280;42618;51.226;4.910;2022-09-13T07:51:42;49557.56;;;-146.94;76.12
56737;BME280;42618;51.226;4.910;2022-09-13T07:54:15;49571.50;;;-146.94;75.63
56737;BME280;42618;51.226;4.910;2022-09-13T07:56:43;49557.56;;;-146.94;75.46
56737;BME280;42618;51.226;4.910;2022-09-13T07:59:14;49539.63;;;-146.94;76.26
56737;BME280;42618;51.226;4.910;2022-09-13T08:01:43;49567.53;;;-146.94;75.09
56737;BME280;42618;51.226;4.910;2022-09-13T08:04:12;49567.53;;;-146.94;74.89
56737;BME280;42618;51.226;4.910;2022-09-13T08:06:40;49547.59;;;-146.94;74.18
56737;BME280;42618;51.226;4.910;2022-09-13T08:09:08;49561.53;;;-146.94;74.92
56737;BME280;42618;51.226;4.910;2022-09-13T08:11:43;49547.59;;;-146.94;74.27
56737;BME280;42618;51.226;4.910;2022-09-13T08:14:13;49541.59;;;-146.94;74.36
56737;BME280;42618;51.226;4.910;2022-09-13T08:16:40;49567.53;;;-146.94;73.90
56737;BME280;42618;51.226;4.910;2022-09-13T08:19:12;49507.72;;;-146.94;74.06
56737;BME280;42618;51.226;4.910;2022-09-13T08:21:40;49549.59;;;-146.94;74.02
56737;BME280;42618;51.226;4.910;2022-09-13T08:24:13;49535.63;;;-146.94;72.70
56737;BME280;42618;51.226;4.910;2022-09-13T08:26:39;49519.69;;;-146.94;72.19
56737;BME280;42618;51.226;4.910;2022-09-13T08:29:06;49537.63;;;-146.94;73.23
56737;BME280;42618;51.226;4.910;2022-09-13T08:31:33;49511.72;;;-146.94;74.22
56737;BME280;42618;51.226;4.910;2022-09-13T08:34:00;49519.69;;;-146.94;73.57
56737;BME280;42618;51.226;4.910;2022-09-13T08:36:28;49549.59;;;-146.94;73.05
56737;BME280;42618;51.226;4.910;2022-09-13T08:38:57;49563.53;;;-146.94;73.03
56737;BME280;42618;51.226;4.910;2022-09-13T08:46:46;49509.72;;;-146.94;72.15
56737;BME280;42618;51.226;4.910;2022-09-13T08:49:23;49495.75;;;-146.94;72.57
56737;BME280;42618;51.226;4.910;2022-09-13T08:52:04;49531.63;;;-146.94;71.16
56737;BME280;42618;51.226;4.910;2022-09-13T08:54:37;49553.56;;;-146.94;69.51
56737;BME280;42618;51.226;4.910;2022-09-13T08:57:26;49547.59;;;-146.94;69.17
56737;BME280;42618;51.226;4.910;2022-09-13T09:00:08;49517.69;;;-146.94;68.61
56737;BME280;42618;51.226;4.910;2022-09-13T09:02:53;49539.63;;;-146.94;68.21
56737;BME280;42618;51.226;4.910;2022-09-13T09:05:23;49519.69;;;-146.94;67.91
56737;BME280;42618;51.226;4.910;2022-09-13T09:10:26;49525.66;;;-146.94;66.06
56737;BME280;42618;51.226;4.910;2022-09-13T09:13:02;49495.75;;;-146.94;65.55
56737;BME280;42618;51.226;4.910;2022-09-13T09:15:34;49499.75;;;-146.94;66.11
56737;BME280;42618;51.226;4.910;2022-09-13T09:18:09;49491.78;;;-146.94;64.93
56737;BME280;42618;51.226;4.910;2022-09-13T09:20:41;49489.78;;;-146.94;63.97
56737;BME280;42618;51.226;4.910;2022-09-13T09:23:48;49507.72;;;-146.94;64.17
56737;BME280;42618;51.226;4.910;2022-09-13T09:26:24;49503.72;;;-146.94;63.33
56737;BME280;42618;51.226;4.910;2022-09-13T09:28:57;49475.81;;;-146.94;63.17
56737;BME280;42618;51.226;4.910;2022-09-13T09:34:10;49495.75;;;-146.94;63.17
56737;BME280;42618;51.226;4.910;2022-09-13T09:36:55;49517.69;;;-146.94;62.40
56737;BME280;42618;51.226;4.910;2022-09-13T09:39:29;49499.75;;;-146.94;62.47
56737;BME280;42618;51.226;4.910;2022-09-13T09:41:58;49507.72;;;-146.94;62.25
56737;BME280;42618;51.226;4.910;2022-09-13T09:44:27;49543.59;;;-146.94;60.82
56737;BME280;42618;51.226;4.910;2022-09-13T09:47:05;49485.78;;;-146.94;61.09
56737;BME280;42618;51.226;4.910;2022-09-13T09:52:26;49491.78;;;-146.94;61.57
56737;BME280;42618;51.226;4.910;2022-09-13T09:54:59;49465.84;;;-146.94;61.88
56737;BME280;42618;51.226;4.910;2022-09-13T09:58:03;49509.72;;;-146.94;61.16
56737;BME280;42618;51.226;4.910;2022-09-13T10:03:20;49449.91;;;-146.94;59.84
56737;BME280;42618;51.226;4.910;2022-09-13T10:05:49;49485.78;;;-146.94;58.79
56737;BME280;42618;51.226;4.910;2022-09-13T10:08:31;49475.81;;;-146.94;58.24
56737;BME280;42618;51.226;4.910;2022-09-13T10:10:59;49463.88;;;-146.94;56.35
56737;BME280;42618;51.226;4.910;2022-09-13T10:13:29;49485.78;;;-146.94;55.93
56737;BME280;42618;51.226;4.910;2022-09-13T10:18:25;49451.91;;;-146.94;54.68
56737;BME280;42618;51.226;4.910;2022-09-13T10:23:44;49439.94;;;-146.94;54.37
56737;BME280;42618;51.226;4.910;2022-09-13T10:26:20;49469.84;;;-146.94;52.78
56737;BME280;42618;51.226;4.910;2022-09-13T10:29:07;49433.97;;;-146.94;51.25
56737;BME280;42618;51.226;4.910;2022-09-13T10:31:37;49451.91;;;-146.94;52.35
56737;BME280;42618;51.226;4.910;2022-09-13T10:34:22;49433.97;;;-146.94;52.08
56737;BME280;42618;51.226;4.910;2022-09-13T10:37:03;49439.94;;;-146.94;51.54
56737;BME280;42618;51.226;4.910;2022-09-13T10:39:33;49447.91;;;-146.94;51.38
56737;BME280;42618;51.226;4.910;2022-09-13T10:42:04;49439.94;;;-146.94;51.63
56737;BME280;42618;51.226;4.910;2022-09-13T10:44:44;49420.00;;;-146.94;51.34
56737;BME280;42618;51.226;4.910;2022-09-13T10:47:19;49431.97;;;-146.94;49.55
56737;BME280;42618;51.226;4.910;2022-09-13T10:49:50;49420.00;;;-146.94;48.24
56737;BME280;42618;51.226;4.910;2022-09-13T10:52:33;49406.06;;;-146.94;47.66
56737;BME280;42618;51.226;4.910;2022-09-13T10:57:47;49426.00;;;-146.94;45.29
56737;BME280;42618;51.226;4.910;2022-09-13T11:05:56;49441.94;;;-146.94;44.97
56737;BME280;42618;51.226;4.910;2022-09-13T11:13:47;49420.00;;;-146.94;46.99
56737;BME280;42618;51.226;4.910;2022-09-13T11:22:21;49412.03;;;-146.94;48.29
56737;BME280;42618;51.226;4.910;2022-09-13T11:30:37;49408.06;;;-146.94;46.24
56737;BME280;42618;51.226;4.910;2022-09-13T11:33:33;49447.91;;;-146.94;46.46
56737;BME280;42618;51.226;4.910;2022-09-13T11:36:33;49422.00;;;-146.94;46.24
56737;BME280;42618;51.226;4.910;2022-09-13T11:47:10;49408.06;;;-146.94;45.55
56737;BME280;42618;51.226;4.910;2022-09-13T11:50:00;49420.00;;;-146.94;45.49
56737;BME280;42618;51.226;4.910;2022-09-13T11:55:17;49376.16;;;-146.94;43.82
56737;BME280;42618;51.226;4.910;2022-09-13T11:57:50;49388.13;;;-146.94;44.80
56737;BME280;42618;51.226;4.910;2022-09-13T12:00:27;49390.09;;;-146.94;44.30
56737;BME280;42618;51.226;4.910;2022-09-13T12:05:26;49376.16;;;-146.94;43.48
56737;BME280;42618;51.226;4.910;2022-09-13T12:08:21;49400.06;;;-146.94;43.47
56737;BME280;42618;51.226;4.910;2022-09-13T12:10:55;49427.97;;;-146.94;43.66
56737;BME280;42618;51.226;4.910;2022-09-13T12:13:28;49418.00;;;-146.94;44.52
56737;BME280;42618;51.226;4.910;2022-09-13T12:16:00;49439.94;;;-146.94;45.36
56737;BME280;42618;51.226;4.910;2022-09-13T12:21:08;49386.13;;;-146.94;44.15
56737;BME280;42618;51.226;4.910;2022-09-13T12:23:40;49392.09;;;-146.94;42.87
56737;BME280;42618;51.226;4.910;2022-09-13T12:28:52;49378.16;;;-146.94;42.70
56737;BME280;42618;51.226;4.910;2022-09-13T12:31:23;49392.09;;;-146.94;43.30
56737;BME280;42618;51.226;4.910;2022-09-13T12:33:51;49388.13;;;-146.94;44.02
56737;BME280;42618;51.226;4.910;2022-09-13T12:39:11;49396.09;;;-146.94;43.60
56737;BME280;42618;51.226;4.910;2022-09-13T12:56:02;49382.13;;;-146.94;42.28
56737;BME280;42618;51.226;4.910;2022-09-13T12:58:33;49386.13;;;-146.94;41.44
56737;BME280;42618;51.226;4.910;2022-09-13T13:01:13;49390.09;;;-146.94;41.93
56737;BME280;42618;51.226;4.910;2022-09-13T13:06:24;49392.09;;;-146.94;43.05
56737;BME280;42618;51.226;4.910;2022-09-13T13:08:56;49410.03;;;-146.94;43.10
56737;BME280;42618;51.226;4.910;2022-09-13T13:11:26;49404.06;;;-146.94;43.11
56737;BME280;42618;51.226;4.910;2022-09-13T13:14:01;49426.00;;;-146.94;43.18
56737;BME280;42618;51.226;4.910;2022-09-13T13:16:37;49422.00;;;-146.94;43.52
56737;BME280;42618;51.226;4.910;2022-09-13T13:21:54;49414.03;;;-146.94;44.32
56737;BME280;42618;51.226;4.910;2022-09-13T13:26:52;49431.97;;;-146.94;44.97
56737;BME280;42618;51.226;4.910;2022-09-13T13:34:34;49424.00;;;-146.94;45.26
56737;BME280;42618;51.226;4.910;2022-09-13T13:39:42;49400.06;;;-146.94;45.63
56737;BME280;42618;51.226;4.910;2022-09-13T13:42:26;49426.00;;;-146.94;45.10
56737;BME280;42618;51.226;4.910;2022-09-13T13:57:22;49451.91;;;-146.94;49.03
56737;BME280;42618;51.226;4.910;2022-09-13T14:05:25;49445.94;;;-146.94;49.55
56737;BME280;42618;51.226;4.910;2022-09-13T14:13:53;49451.91;;;-146.94;50.05
56737;BME280;42618;51.226;4.910;2022-09-13T14:19:40;49449.91;;;-146.94;51.93
56737;BME280;42618;51.226;4.910;2022-09-13T14:22:22;49412.03;;;-146.94;54.09
56737;BME280;42618;51.226;4.910;2022-09-13T14:24:51;49459.88;;;-146.94;56.07
56737;BME280;42618;51.226;4.910;2022-09-13T14:27:28;49416.03;;;-146.94;58.05
56737;BME280;42618;51.226;4.910;2022-09-13T14:30:02;49427.97;;;-146.94;59.09
56737;BME280;42618;51.226;4.910;2022-09-13T14:32:39;49433.97;;;-146.94;61.79
56737;BME280;42618;51.226;4.910;2022-09-13T14:37:49;49455.88;;;-146.94;63.09
56737;BME280;42618;51.226;4.910;2022-09-13T14:40:19;49457.88;;;-146.94;64.04
56737;BME280;42618;51.226;4.910;2022-09-13T14:42:49;49467.84;;;-146.94;63.10
56737;BME280;42618;51.226;4.910;2022-09-13T14:45:26;49459.88;;;-146.94;64.73
56737;BME280;42618;51.226;4.910;2022-09-13T14:47:59;49463.88;;;-146.94;65.40
56737;BME280;42618;51.226;4.910;2022-09-13T14:50:39;49473.84;;;-146.94;65.33
56737;BME280;42618;51.226;4.910;2022-09-13T14:53:15;49491.78;;;-146.94;66.35
56737;BME280;42618;51.226;4.910;2022-09-13T14:55:56;49459.88;;;-146.94;68.71
56737;BME280;42618;51.226;4.910;2022-09-13T14:58:37;49439.94;;;-146.94;70.65
56737;BME280;42618;51.226;4.910;2022-09-13T15:01:10;49447.91;;;-146.94;71.29
56737;BME280;42618;51.226;4.910;2022-09-13T15:03:45;49491.78;;;-146.94;74.06
56737;BME280;42618;51.226;4.910;2022-09-13T15:06:22;49469.84;;;-146.94;73.59
56737;BME280;42618;51.226;4.910;2022-09-13T15:08:50;49483.81;;;-146.94;76.56
56737;BME280;42618;51.226;4.910;2022-09-13T15:11:34;49469.84;;;-146.94;76.90
56737;BME280;42618;51.226;4.910;2022-09-13T15:16:53;49483.81;;;-146.94;76.97
56737;BME280;42618;51.226;4.910;2022-09-13T15:21:50;49497.75;;;-146.94;77.66
56737;BME280;42618;51.226;4.910;2022-09-13T15:24:24;49461.88;;;-146.94;78.03
56737;BME280;42618;51.226;4.910;2022-09-13T15:27:24;49461.88;;;-146.94;78.99
56737;BME280;42618;51.226;4.910;2022-09-13T15:29:54;49503.72;;;-146.94;79.90
56737;BME280;42618;51.226;4.910;2022-09-13T15:32:42;49479.81;;;-146.94;80.02
56737;BME280;42618;51.226;4.910;2022-09-13T15:35:34;49507.72;;;-146.94;79.47
56737;BME280;42618;51.226;4.910;2022-09-13T15:40:46;49503.72;;;-146.94;78.56
56737;BME280;42618;51.226;4.910;2022-09-13T15:43:13;49489.78;;;-146.94;78.86
56737;BME280;42618;51.226;4.910;2022-09-13T15:45:40;49519.69;;;-146.94;80.27
56737;BME280;42618;51.226;4.910;2022-09-13T15:48:07;49515.69;;;-146.94;79.56
56737;BME280;42618;51.226;4.910;2022-09-13T15:50:42;49479.81;;;-146.94;79.60
56737;BME280;42618;51.226;4.910;2022-09-13T15:53:10;49499.75;;;-146.94;79.44
56737;BME280;42618;51.226;4.910;2022-09-13T15:55:38;49503.72;;;-146.94;79.99
56737;BME280;42618;51.226;4.910;2022-09-13T15:58:04;49481.81;;;-146.94;79.38
56737;BME280;42618;51.226;4.910;2022-09-13T16:00:31;49477.81;;;-146.94;80.09
56737;BME280;42618;51.226;4.910;2022-09-13T16:02:58;49495.75;;;-146.94;81.02
56737;BME280;42618;51.226;4.910;2022-09-13T16:05:25;49517.69;;;-146.94;81.80
56737;BME280;42618;51.226;4.910;2022-09-13T16:07:52;49499.75;;;-146.94;82.96